createdAt,value
2019-04-23T00:01:46.984Z,73.10
2019-04-23T00:04:04.213Z,72.90
2019-04-23T00:06:40.636Z,72.00
2019-04-23T00:14:12.205Z,72.20
2019-04-23T00:16:38.224Z,72.60
2019-04-23T00:19:10.313Z,71.40
2019-04-23T00:21:59.987Z,72.60
2019-04-23T00:27:24.069Z,72.80
2019-04-23T00:29:53.152Z,71.90
2019-04-23T00:32:23.935Z,72.60
2019-04-23T00:37:25.941Z,72.70
2019-04-23T00:44:51.532Z,71.90
2019-04-23T00:47:25.747Z,71.90
2019-04-23T00:49:58.596Z,72.70
2019-04-23T00:52:26.591Z,72.20
2019-04-23T00:55:05.504Z,71.50
2019-04-23T00:57:32.506Z,72.30
2019-04-23T01:05:24.066Z,72.70
2019-04-23T01:07:31.764Z,73.80
2019-04-23T01:10:13.932Z,72.90
2019-04-23T01:12:45.872Z,72.00
2019-04-23T01:15:18.949Z,72.50
2019-04-23T01:17:50.600Z,73.60
2019-04-23T01:20:20.988Z,74.70
2019-04-23T01:22:35.631Z,73.30
2019-04-23T01:25:36.417Z,73.90
2019-04-23T01:28:26.656Z,73.50
2019-04-23T01:31:05.606Z,72.90
2019-04-23T01:33:33.047Z,75.10
2019-04-23T01:36:16.220Z,74.10
2019-04-23T01:38:33.572Z,73.60
2019-04-23T01:41:00.293Z,74.30
2019-04-23T01:43:37.417Z,74.40
2019-04-23T01:46:07.931Z,74.10
2019-04-23T01:48:40.409Z,73.60
2019-04-23T01:51:02.078Z,74.40
2019-04-23T01:53:38.671Z,75.40
2019-04-23T01:56:14.020Z,75.80
2019-04-23T02:01:11.875Z,74.40
2019-04-23T02:03:47.014Z,75.40
2019-04-23T02:06:13.614Z,75.10
2019-04-23T02:08:47.010Z,76.10
2019-04-23T02:11:35.741Z,75.60
2019-04-23T02:13:51.560Z,75.40
2019-04-23T02:16:24.654Z,76.10
2019-04-23T02:19:10.254Z,76.20
2019-04-23T02:21:26.057Z,76.10
2019-04-23T02:23:57.294Z,76.00
2019-04-23T02:26:35.142Z,77.30
2019-04-23T02:29:07.584Z,76.30
2019-04-23T02:34:25.375Z,76.60
2019-04-23T02:36:46.144Z,76.80
2019-04-23T02:39:19.887Z,78.00
2019-04-23T02:41:54.410Z,77.30
2019-04-23T02:46:56.702Z,77.70
2019-04-23T02:51:54.603Z,77.50
2019-04-23T02:54:41.452Z,78.80
2019-04-23T02:56:50.974Z,78.40
2019-04-23T02:59:47.639Z,78.70
2019-04-23T03:02:07.681Z,78.70
2019-04-23T03:04:34.915Z,78.20
2019-04-23T03:07:05.153Z,78.60
2019-04-23T03:09:38.754Z,80.40
2019-04-23T03:12:08.257Z,79.00
2019-04-23T03:14:33.415Z,80.60
2019-04-23T03:17:03.444Z,80.80
2019-04-23T03:20:06.038Z,81.10
2019-04-23T03:22:15.791Z,82.30
2019-04-23T03:25:05.349Z,84.90
2019-04-23T03:27:37.593Z,81.00
2019-04-23T03:30:06.195Z,82.80
2019-04-23T03:42:42.498Z,82.80
2019-04-23T03:45:16.333Z,82.90
2019-04-23T03:47:39.044Z,83.90
2019-04-23T03:50:14.921Z,85.80
2019-04-23T03:52:38.452Z,87.30
2019-04-23T03:55:19.103Z,87.00
2019-04-23T04:03:03.759Z,90.60
2019-04-23T04:05:33.699Z,88.50
2019-04-23T04:08:16.060Z,91.20
2019-04-23T04:10:25.615Z,91.10
2019-04-23T04:12:57.667Z,88.80
2019-04-23T04:15:53.337Z,90.60
2019-04-23T04:18:13.903Z,90.50
2019-04-23T04:23:17.543Z,93.70
2019-04-23T04:28:12.580Z,93.00
2019-04-23T04:36:10.557Z,94.50
2019-04-23T04:38:36.383Z,94.20
2019-04-23T04:43:31.292Z,94.60
2019-04-23T04:51:15.951Z,98.50
2019-04-23T04:58:40.661Z,99.90
2019-04-23T05:06:16.346Z,99.90
2019-04-23T05:16:15.942Z,99.90
2019-04-23T05:18:49.426Z,99.90
2019-04-23T05:21:43.163Z,99.90
2019-04-23T05:23:50.988Z,99.90
2019-04-23T05:28:59.473Z,99.90
2019-04-23T05:33:59.942Z,99.90
2019-04-23T05:39:00.826Z,99.90
2019-04-23T05:41:33.826Z,99.90
2019-04-23T05:43:59.570Z,99.90
2019-04-23T05:46:32.841Z,99.90
2019-04-23T05:49:03.034Z,99.90
2019-04-23T05:51:38.796Z,99.90
2019-04-23T05:54:18.892Z,99.90
2019-04-23T05:56:32.445Z,99.90
2019-04-23T05:59:06.725Z,99.90
2019-04-23T06:04:27.124Z,99.90
2019-04-23T06:09:14.126Z,99.90
2019-04-23T06:14:18.991Z,99.90
2019-04-23T06:24:26.052Z,99.90
2019-04-23T06:34:34.966Z,99.50
2019-04-23T06:39:33.181Z,99.90
2019-04-23T06:44:30.793Z,99.90
2019-04-23T06:47:03.202Z,98.90
2019-04-23T06:49:37.251Z,99.90
2019-04-23T06:54:42.411Z,99.00
2019-04-23T06:57:14.859Z,99.00
2019-04-23T06:59:37.581Z,99.90
2019-04-23T07:02:11.970Z,98.00
2019-04-23T07:04:55.465Z,97.90
2019-04-23T07:07:37.913Z,96.00
2019-04-23T07:09:43.917Z,97.10
2019-04-23T07:12:15.039Z,97.70
2019-04-23T07:14:54.350Z,97.40
2019-04-23T07:17:13.348Z,99.10
2019-04-23T07:19:50.143Z,98.10
2019-04-23T07:24:52.758Z,96.60
2019-04-23T07:30:02.136Z,96.70
2019-04-23T07:32:47.995Z,96.50
2019-04-23T07:37:34.377Z,95.20
2019-04-23T07:43:03.442Z,94.00
2019-04-23T07:46:02.443Z,95.00
2019-04-23T07:48:16.627Z,97.50
2019-04-23T07:51:00.600Z,96.30
2019-04-23T07:53:35.876Z,94.10
2019-04-23T07:56:02.202Z,95.90
2019-04-23T07:58:28.676Z,95.60
2019-04-23T08:03:37.982Z,93.30
2019-04-23T08:06:04.319Z,94.40
2019-04-23T08:08:39.715Z,93.30
2019-04-23T08:11:29.873Z,92.70
2019-04-23T08:13:52.327Z,92.40
2019-04-23T08:16:25.932Z,94.50
2019-04-23T08:18:49.236Z,92.20
2019-04-23T08:21:15.144Z,91.40
2019-04-23T08:24:18.614Z,93.10
2019-04-23T08:27:13.082Z,91.80
2019-04-23T08:29:45.850Z,90.00
2019-04-23T08:32:18.574Z,90.20
2019-04-23T08:40:06.321Z,92.70
2019-04-23T08:42:45.634Z,91.40
2019-04-23T08:45:21.815Z,90.10
2019-04-23T08:48:18.741Z,90.20
2019-04-23T08:53:26.368Z,92.70
2019-04-23T08:58:19.161Z,91.10
2019-04-23T09:05:53.054Z,93.40
2019-04-23T09:11:18.838Z,87.90
2019-04-23T09:15:56.274Z,91.60
2019-04-23T09:18:26.218Z,90.90
2019-04-23T09:20:55.136Z,92.20
2019-04-23T09:23:34.676Z,89.60
2019-04-23T09:25:57.933Z,87.50
2019-04-23T09:28:41.705Z,87.40
2019-04-23T09:31:38.603Z,85.50
2019-04-23T09:34:04.947Z,89.20
2019-04-23T09:36:53.856Z,89.40
2019-04-23T09:39:32.658Z,88.40
2019-04-23T09:42:44.076Z,89.70
2019-04-23T09:45:28.142Z,90.90
2019-04-23T09:48:04.791Z,91.30
2019-04-23T09:53:17.146Z,87.10
2019-04-23T09:55:37.397Z,89.70
2019-04-23T09:58:11.787Z,89.40
2019-04-23T10:03:04.723Z,88.80
2019-04-23T10:05:35.284Z,90.40
2019-04-23T10:08:04.179Z,90.10
2019-04-23T10:10:26.005Z,92.70
2019-04-23T10:12:55.801Z,90.50
2019-04-23T10:15:32.456Z,91.70
2019-04-23T10:17:58.128Z,91.10
2019-04-23T10:20:28.957Z,87.20
2019-04-23T10:23:00.031Z,88.80
2019-04-23T10:25:30.182Z,91.00
2019-04-23T10:28:04.980Z,90.70
2019-04-23T10:30:32.933Z,90.20
2019-04-23T10:33:03.343Z,89.60
2019-04-23T10:35:43.237Z,90.30
2019-04-23T10:38:10.397Z,89.10
2019-04-23T10:40:38.882Z,88.60
2019-04-23T10:43:07.474Z,89.60
2019-04-23T10:46:21.050Z,88.10
2019-04-23T10:49:50.856Z,85.20
2019-04-23T10:52:04.916Z,88.00
2019-04-23T10:54:37.697Z,87.70
2019-04-23T11:02:29.291Z,82.50
2019-04-23T11:04:57.788Z,85.70
2019-04-23T11:07:26.935Z,82.30
2019-04-23T11:12:37.187Z,79.10
2019-04-23T11:20:34.054Z,80.40
2019-04-23T11:30:36.726Z,81.10
2019-04-23T11:33:05.087Z,80.10
2019-04-23T11:40:25.425Z,78.30
2019-04-23T11:45:42.549Z,76.10
2019-04-23T11:51:10.475Z,75.20
2019-04-23T11:53:10.565Z,75.80
2019-04-23T11:58:13.735Z,73.80
2019-04-23T12:03:26.919Z,73.00
2019-04-23T12:06:21.943Z,79.40
2019-04-23T12:09:09.802Z,79.70
2019-04-23T12:27:23.202Z,70.40
2019-04-23T12:30:08.918Z,71.20
2019-04-23T12:45:25.998Z,72.30
2019-04-23T12:55:24.730Z,72.00
2019-04-23T12:57:57.389Z,72.40
2019-04-23T13:02:48.531Z,67.90
2019-04-23T13:08:22.044Z,72.10
2019-04-23T13:10:28.352Z,72.60
2019-04-23T13:15:29.395Z,69.40
2019-04-23T13:20:32.100Z,71.90
2019-04-23T13:25:56.141Z,73.80
2019-04-23T13:28:23.590Z,72.30
2019-04-23T13:33:52.228Z,73.20
2019-04-23T13:36:17.459Z,70.90
2019-04-23T13:38:40.335Z,72.50
2019-04-23T13:43:42.511Z,74.90
2019-04-23T13:48:42.240Z,72.90
2019-04-23T13:51:26.020Z,74.50
2019-04-23T13:56:46.431Z,76.50
2019-04-23T13:58:59.688Z,76.30
2019-04-23T14:01:28.767Z,75.40
2019-04-23T14:03:59.983Z,76.90
2019-04-23T14:14:18.006Z,80.10
2019-04-23T14:17:00.177Z,75.00
2019-04-23T14:19:22.851Z,76.90
2019-04-23T14:21:59.600Z,75.20
2019-04-23T14:24:38.879Z,76.60
2019-04-23T14:27:09.345Z,74.80
2019-04-23T14:29:21.545Z,78.70
2019-04-23T14:32:01.318Z,76.50
2019-04-23T14:34:19.675Z,75.80
2019-04-23T14:36:57.748Z,76.40
2019-04-23T14:39:28.574Z,75.50
2019-04-23T14:41:56.473Z,78.30
2019-04-23T14:44:49.690Z,75.30
2019-04-23T14:47:13.291Z,77.40
2019-04-23T14:49:56.628Z,76.60
2019-04-23T14:52:12.091Z,79.70
2019-04-23T14:59:47.228Z,79.60
2019-04-23T15:02:19.838Z,80.40
2019-04-23T15:04:47.917Z,81.20
2019-04-23T15:07:22.939Z,79.70
2019-04-23T15:12:33.547Z,80.20
2019-04-23T15:15:07.778Z,81.10
2019-04-23T15:17:30.530Z,78.00
2019-04-23T15:20:08.332Z,79.90
2019-04-23T15:22:35.270Z,80.00
2019-04-23T15:25:23.462Z,80.50
2019-04-23T15:29:57.785Z,82.60
2019-04-23T15:32:54.932Z,81.00
2019-04-23T15:35:31.561Z,81.30
2019-04-23T15:38:02.195Z,80.00
2019-04-23T15:42:51.596Z,81.00
2019-04-23T15:45:19.443Z,79.70
2019-04-23T15:47:49.312Z,83.20
2019-04-23T15:50:23.505Z,82.60
2019-04-23T15:55:22.793Z,81.00
2019-04-23T16:00:17.901Z,80.80
2019-04-23T16:02:27.201Z,84.30
2019-04-23T16:04:58.085Z,83.80
2019-04-23T16:07:42.610Z,81.90
2019-04-23T16:10:49.185Z,83.70
2019-04-23T16:13:02.315Z,82.20
2019-04-23T16:15:27.066Z,80.20
2019-04-23T16:18:36.591Z,80.80
2019-04-23T16:21:16.625Z,80.10
2019-04-23T16:23:37.138Z,81.10
2019-04-23T16:26:12.290Z,80.10
2019-04-23T16:29:00.616Z,79.30
2019-04-23T16:31:28.023Z,80.70
2019-04-23T16:33:47.916Z,79.40
2019-04-23T16:36:21.807Z,80.20
2019-04-23T16:38:55.633Z,80.70
2019-04-23T16:41:42.266Z,81.30
2019-04-23T16:43:57.733Z,81.30
2019-04-23T16:46:39.129Z,82.00
2019-04-23T16:51:29.654Z,81.40
2019-04-23T16:54:01.681Z,80.40
2019-04-23T16:56:44.298Z,80.80
2019-04-23T16:59:08.634Z,81.50
2019-04-23T17:01:26.546Z,80.10
2019-04-23T17:04:15.780Z,81.30
2019-04-23T17:11:34.309Z,82.00
2019-04-23T17:16:38.646Z,81.60
2019-04-23T17:21:51.989Z,82.60
2019-04-23T17:24:21.225Z,82.60
2019-04-23T17:29:24.499Z,83.30
2019-04-23T17:31:44.840Z,84.70
2019-04-23T17:34:30.815Z,85.10
2019-04-23T17:40:18.156Z,85.70
2019-04-23T17:43:08.937Z,84.70
2019-04-23T17:48:17.251Z,86.20
2019-04-23T17:53:25.317Z,88.10
2019-04-23T17:58:31.825Z,89.80
2019-04-23T18:01:11.271Z,88.30
2019-04-23T18:03:41.610Z,87.50
2019-04-23T18:06:29.392Z,88.50
2019-04-23T18:08:38.084Z,90.80
2019-04-23T18:13:45.989Z,89.60
2019-04-23T18:24:56.028Z,91.60
2019-04-23T18:29:57.207Z,93.00
2019-04-23T18:32:43.395Z,91.90
2019-04-23T18:37:36.190Z,94.00
2019-04-23T18:40:03.643Z,94.00
2019-04-23T18:45:14.763Z,93.90
2019-04-23T18:47:45.728Z,94.10
2019-04-23T18:50:24.810Z,94.00
2019-04-23T18:52:58.441Z,94.50
2019-04-23T18:55:29.442Z,95.20
2019-04-23T18:57:50.425Z,95.10
2019-04-23T19:00:24.899Z,95.60
2019-04-23T19:03:11.264Z,94.60
2019-04-23T19:05:54.997Z,95.50
2019-04-23T19:11:19.017Z,95.70
2019-04-23T19:13:44.770Z,95.20
2019-04-23T19:16:15.686Z,94.40
2019-04-23T19:18:49.275Z,95.50
2019-04-23T19:21:44.595Z,94.00
2019-04-23T19:23:51.100Z,94.50
2019-04-23T19:26:45.926Z,95.20
2019-04-23T19:29:13.929Z,95.00
2019-04-23T19:31:46.032Z,94.10
2019-04-23T19:34:24.602Z,95.30
2019-04-23T19:36:57.826Z,94.50
2019-04-23T19:39:21.811Z,95.20
2019-04-23T19:41:57.729Z,94.40
2019-04-23T19:44:18.399Z,94.60
2019-04-23T19:47:00.363Z,95.00
2019-04-23T19:49:26.855Z,95.00
2019-04-23T19:54:34.323Z,94.90
2019-04-23T19:59:31.646Z,94.30
2019-04-23T20:02:00.212Z,94.50
2019-04-23T20:04:30.367Z,94.60
2019-04-23T20:14:32.547Z,95.00
2019-04-23T20:19:40.956Z,95.40
2019-04-23T20:22:09.072Z,96.00
2019-04-23T20:24:55.745Z,95.80
2019-04-23T20:27:11.493Z,95.80
2019-04-23T20:35:24.188Z,95.50
2019-04-23T20:40:18.629Z,95.60
2019-04-23T20:42:46.757Z,96.10
2019-04-23T20:45:38.678Z,96.00
2019-04-23T20:47:52.896Z,95.70
2019-04-23T20:50:19.773Z,96.00
2019-04-23T20:52:49.649Z,95.70
2019-04-23T20:55:40.838Z,95.70
2019-04-23T20:58:39.480Z,96.20
2019-04-23T21:01:13.180Z,96.20
2019-04-23T21:03:56.934Z,96.60
2019-04-23T21:06:30.071Z,96.70
2019-04-23T21:09:14.890Z,96.10
2019-04-23T21:11:14.190Z,96.50
2019-04-23T21:16:21.194Z,97.30
2019-04-23T21:18:49.819Z,96.80
2019-04-23T21:24:07.280Z,96.50
2019-04-23T21:26:17.042Z,96.40
2019-04-23T21:31:37.725Z,97.10
2019-04-23T21:34:06.103Z,96.80
2019-04-23T21:36:48.217Z,97.10
2019-04-23T21:39:38.838Z,96.90
2019-04-23T21:42:35.828Z,97.50
2019-04-23T21:44:53.960Z,96.70
2019-04-23T21:47:30.695Z,98.20
2019-04-23T21:50:11.901Z,97.30
2019-04-23T21:55:04.065Z,97.10
2019-04-23T21:57:37.461Z,98.00
2019-04-23T22:00:04.020Z,97.70
2019-04-23T22:02:57.457Z,97.80
2019-04-23T22:05:09.102Z,97.60
2019-04-23T22:07:44.168Z,97.80
2019-04-23T22:12:52.882Z,98.20
2019-04-23T22:15:13.022Z,98.30
2019-04-23T22:17:47.792Z,99.00
2019-04-23T22:20:21.468Z,98.80
2019-04-23T22:22:56.578Z,98.20
2019-04-23T22:25:18.602Z,98.50
2019-04-23T22:27:48.428Z,99.00
2019-04-23T22:30:22.725Z,99.00
2019-04-23T22:32:56.096Z,98.50
2019-04-23T22:35:25.273Z,99.10
2019-04-23T22:38:07.523Z,98.90
2019-04-23T22:40:28.391Z,99.60
2019-04-23T22:45:50.058Z,99.10
2019-04-23T22:48:03.008Z,99.20
2019-04-23T22:50:38.455Z,99.10
2019-04-23T22:55:46.501Z,99.30
2019-04-23T23:01:00.387Z,99.50
2019-04-23T23:03:27.622Z,99.40
2019-04-23T23:08:31.698Z,99.80
2019-04-23T23:11:03.458Z,99.90
2019-04-23T23:13:46.534Z,99.90
2019-04-23T23:18:55.316Z,99.30
2019-04-23T23:21:06.162Z,99.90
2019-04-23T23:23:52.955Z,99.90
2019-04-23T23:26:09.960Z,99.80
2019-04-23T23:28:40.768Z,99.40
2019-04-23T23:31:30.181Z,99.90
2019-04-23T23:36:12.393Z,99.90
2019-04-23T23:38:50.811Z,99.90
2019-04-23T23:41:24.807Z,99.90
2019-04-23T23:43:54.641Z,99.90
2019-04-23T23:46:31.433Z,99.90
2019-04-23T23:48:48.462Z,99.90
2019-04-23T23:51:25.689Z,99.90
2019-04-23T23:53:57.345Z,99.90
2019-04-23T23:59:10.363Z,99.90
